sensor_id;sensor_type;location;lat;lon;timestamp;P1;durP1;ratioP1;P2;durP2;ratioP2
61435;SDS011;47304;47.456;19.160;2023-04-01T00:01:03;6.40;;;2.50;;
61435;SDS011;47304;47.456;19.160;2023-04-01T00:03:30;6.60;;;2.70;;
61435;SDS011;47304;47.456;19.160;2023-04-01T00:05:57;5.40;;;2.20;;
61435;SDS011;47304;47.456;19.160;2023-04-01T00:08:25;6.00;;;2.30;;
61435;SDS011;47304;47.456;19.160;2023-04-01T00:10:52;7.20;;;2.70;;
61435;SDS011;47304;47.456;19.160;2023-04-01T00:13:20;5.30;;;2.50;;
61435;SDS011;47304;47.456;19.160;2023-04-01T00:15:47;6.20;;;2.30;;
61435;SDS011;47304;47.456;19.160;2023-04-01T00:18:13;7.80;;;2.60;;
61435;SDS011;47304;47.456;19.160;2023-04-01T00:20:44;7.40;;;2.90;;
61435;SDS011;47304;47.456;19.160;2023-04-01T00:23:12;8.40;;;2.60;;
61435;SDS011;47304;47.456;19.160;2023-04-01T00:25:38;6.10;;;2.30;;
61435;SDS011;47304;47.456;19.160;2023-04-01T00:28:05;5.60;;;2.70;;
61435;SDS011;47304;47.456;19.160;2023-04-01T00:30:31;5.50;;;2.50;;
61435;SDS011;47304;47.456;19.160;2023-04-01T00:32:58;5.50;;;2.40;;
61435;SDS011;47304;47.456;19.160;2023-04-01T00:35:25;6.30;;;2.40;;
61435;SDS011;47304;47.456;19.160;2023-04-01T00:37:51;7.60;;;2.50;;
61435;SDS011;47304;47.456;19.160;2023-04-01T00:40:28;5.70;;;2.30;;
61435;SDS011;47304;47.456;19.160;2023-04-01T00:42:59;5.70;;;2.10;;
61435;SDS011;47304;47.456;19.160;2023-04-01T00:45:28;4.60;;;2.20;;
61435;SDS011;47304;47.456;19.160;2023-04-01T00:47:56;6.10;;;2.40;;
61435;SDS011;47304;47.456;19.160;2023-04-01T00:50:25;6.50;;;2.20;;
61435;SDS011;47304;47.456;19.160;2023-04-01T00:52:53;6.20;;;2.60;;
61435;SDS011;47304;47.456;19.160;2023-04-01T00:55:19;5.60;;;2.60;;
61435;SDS011;47304;47.456;19.160;2023-04-01T00:57:49;6.40;;;2.60;;
61435;SDS011;47304;47.456;19.160;2023-04-01T01:00:19;7.10;;;2.70;;
61435;SDS011;47304;47.456;19.160;2023-04-01T01:02:46;6.20;;;2.70;;
61435;SDS011;47304;47.456;19.160;2023-04-01T01:05:14;6.50;;;2.80;;
61435;SDS011;47304;47.456;19.160;2023-04-01T01:10:23;6.30;;;2.60;;
61435;SDS011;47304;47.456;19.160;2023-04-01T01:23:28;7.30;;;3.10;;
61435;SDS011;47304;47.456;19.160;2023-04-01T01:31:17;5.20;;;2.50;;
61435;SDS011;47304;47.456;19.160;2023-04-01T01:36:37;7.60;;;3.30;;
61435;SDS011;47304;47.456;19.160;2023-04-01T01:39:05;6.30;;;3.00;;
61435;SDS011;47304;47.456;19.160;2023-04-01T01:41:34;7.60;;;3.40;;
61435;SDS011;47304;47.456;19.160;2023-04-01T01:44:03;6.40;;;2.90;;
61435;SDS011;47304;47.456;19.160;2023-04-01T01:46:33;9.70;;;3.30;;
61435;SDS011;47304;47.456;19.160;2023-04-01T01:48:59;8.60;;;2.90;;
61435;SDS011;47304;47.456;19.160;2023-04-01T01:51:28;8.50;;;3.10;;
61435;SDS011;47304;47.456;19.160;2023-04-01T01:53:54;7.90;;;3.50;;
61435;SDS011;47304;47.456;19.160;2023-04-01T01:56:22;7.40;;;3.30;;
61435;SDS011;47304;47.456;19.160;2023-04-01T01:58:53;6.80;;;3.30;;
61435;SDS011;47304;47.456;19.160;2023-04-01T02:01:30;7.10;;;3.50;;
61435;SDS011;47304;47.456;19.160;2023-04-01T02:03:59;6.60;;;3.00;;
61435;SDS011;47304;47.456;19.160;2023-04-01T02:06:28;8.30;;;3.70;;
61435;SDS011;47304;47.456;19.160;2023-04-01T02:08:59;8.30;;;3.60;;
61435;SDS011;47304;47.456;19.160;2023-04-01T02:11:32;7.50;;;3.30;;
61435;SDS011;47304;47.456;19.160;2023-04-01T02:14:17;7.60;;;3.40;;
61435;SDS011;47304;47.456;19.160;2023-04-01T02:16:53;7.10;;;3.60;;
61435;SDS011;47304;47.456;19.160;2023-04-01T02:19:25;9.90;;;4.20;;
61435;SDS011;47304;47.456;19.160;2023-04-01T02:21:58;8.50;;;3.70;;
61435;SDS011;47304;47.456;19.160;2023-04-01T02:24:28;9.60;;;4.20;;
61435;SDS011;47304;47.456;19.160;2023-04-01T02:26:57;8.10;;;3.60;;
61435;SDS011;47304;47.456;19.160;2023-04-01T02:29:24;6.90;;;3.90;;
61435;SDS011;47304;47.456;19.160;2023-04-01T02:31:51;7.20;;;3.60;;
61435;SDS011;47304;47.456;19.160;2023-04-01T02:34:19;7.10;;;3.40;;
61435;SDS011;47304;47.456;19.160;2023-04-01T02:36:48;7.70;;;3.70;;
61435;SDS011;47304;47.456;19.160;2023-04-01T02:39:16;8.10;;;3.70;;
61435;SDS011;47304;47.456;19.160;2023-04-01T02:41:43;7.40;;;3.70;;
61435;SDS011;47304;47.456;19.160;2023-04-01T02:44:13;8.70;;;3.70;;
61435;SDS011;47304;47.456;19.160;2023-04-01T02:46:40;7.50;;;3.40;;
61435;SDS011;47304;47.456;19.160;2023-04-01T02:49:07;8.40;;;3.40;;
61435;SDS011;47304;47.456;19.160;2023-04-01T02:51:34;7.90;;;3.30;;
61435;SDS011;47304;47.456;19.160;2023-04-01T02:54:01;7.50;;;2.80;;
61435;SDS011;47304;47.456;19.160;2023-04-01T02:56:28;6.60;;;2.70;;
61435;SDS011;47304;47.456;19.160;2023-04-01T02:58:54;7.70;;;2.80;;
61435;SDS011;47304;47.456;19.160;2023-04-01T03:01:21;6.60;;;2.80;;
61435;SDS011;47304;47.456;19.160;2023-04-01T03:03:48;6.00;;;2.70;;
61435;SDS011;47304;47.456;19.160;2023-04-01T03:06:15;7.00;;;2.80;;
61435;SDS011;47304;47.456;19.160;2023-04-01T03:08:43;7.00;;;2.60;;
61435;SDS011;47304;47.456;19.160;2023-04-01T03:11:10;6.00;;;2.60;;
61435;SDS011;47304;47.456;19.160;2023-04-01T03:13:37;6.60;;;2.80;;
61435;SDS011;47304;47.456;19.160;2023-04-01T03:16:04;8.20;;;2.70;;
61435;SDS011;47304;47.456;19.160;2023-04-01T03:18:30;5.60;;;2.30;;
61435;SDS011;47304;47.456;19.160;2023-04-01T03:20:57;5.90;;;2.20;;
61435;SDS011;47304;47.456;19.160;2023-04-01T03:23:23;5.80;;;2.40;;
61435;SDS011;47304;47.456;19.160;2023-04-01T03:25:50;7.10;;;2.30;;
61435;SDS011;47304;47.456;19.160;2023-04-01T03:28:17;6.00;;;2.20;;
61435;SDS011;47304;47.456;19.160;2023-04-01T03:30:43;5.40;;;2.10;;
61435;SDS011;47304;47.456;19.160;2023-04-01T03:33:10;5.10;;;1.90;;
61435;SDS011;47304;47.456;19.160;2023-04-01T03:35:36;5.30;;;2.00;;
61435;SDS011;47304;47.456;19.160;2023-04-01T03:38:03;5.60;;;2.40;;
61435;SDS011;47304;47.456;19.160;2023-04-01T03:40:29;5.30;;;2.10;;
61435;SDS011;47304;47.456;19.160;2023-04-01T03:42:56;6.20;;;2.10;;
61435;SDS011;47304;47.456;19.160;2023-04-01T03:45:22;4.30;;;2.00;;
61435;SDS011;47304;47.456;19.160;2023-04-01T03:47:49;5.70;;;1.90;;
61435;SDS011;47304;47.456;19.160;2023-04-01T03:50:15;5.30;;;1.70;;
61435;SDS011;47304;47.456;19.160;2023-04-01T03:52:42;5.20;;;2.00;;
61435;SDS011;47304;47.456;19.160;2023-04-01T03:55:08;6.80;;;2.40;;
61435;SDS011;47304;47.456;19.160;2023-04-01T03:57:35;5.90;;;2.60;;
61435;SDS011;47304;47.456;19.160;2023-04-01T04:00:02;6.70;;;3.20;;
61435;SDS011;47304;47.456;19.160;2023-04-01T04:02:28;7.10;;;3.60;;
61435;SDS011;47304;47.456;19.160;2023-04-01T04:04:55;6.20;;;2.90;;
61435;SDS011;47304;47.456;19.160;2023-04-01T04:07:22;8.90;;;3.30;;
61435;SDS011;47304;47.456;19.160;2023-04-01T04:09:48;7.70;;;3.20;;
61435;SDS011;47304;47.456;19.160;2023-04-01T04:12:14;6.50;;;3.30;;
61435;SDS011;47304;47.456;19.160;2023-04-01T04:14:41;8.70;;;3.70;;
61435;SDS011;47304;47.456;19.160;2023-04-01T04:17:09;6.40;;;2.80;;
61435;SDS011;47304;47.456;19.160;2023-04-01T04:19:36;5.70;;;2.30;;
61435;SDS011;47304;47.456;19.160;2023-04-01T04:22:03;7.30;;;2.70;;
61435;SDS011;47304;47.456;19.160;2023-04-01T04:24:29;5.50;;;2.20;;
61435;SDS011;47304;47.456;19.160;2023-04-01T04:26:56;5.80;;;2.20;;
61435;SDS011;47304;47.456;19.160;2023-04-01T04:29:22;4.60;;;2.00;;
61435;SDS011;47304;47.456;19.160;2023-04-01T04:31:49;4.10;;;1.90;;
61435;SDS011;47304;47.456;19.160;2023-04-01T04:34:15;4.30;;;1.70;;
61435;SDS011;47304;47.456;19.160;2023-04-01T04:36:42;4.60;;;1.90;;
61435;SDS011;47304;47.456;19.160;2023-04-01T04:39:09;3.50;;;1.60;;
61435;SDS011;47304;47.456;19.160;2023-04-01T04:41:37;5.40;;;2.00;;
61435;SDS011;47304;47.456;19.160;2023-04-01T04:44:03;5.20;;;1.80;;
61435;SDS011;47304;47.456;19.160;2023-04-01T04:46:30;3.90;;;1.60;;
61435;SDS011;47304;47.456;19.160;2023-04-01T04:48:57;4.20;;;1.70;;
61435;SDS011;47304;47.456;19.160;2023-04-01T04:51:23;3.90;;;1.80;;
61435;SDS011;47304;47.456;19.160;2023-04-01T04:53:50;5.30;;;1.90;;
61435;SDS011;47304;47.456;19.160;2023-04-01T04:56:21;5.30;;;1.90;;
61435;SDS011;47304;47.456;19.160;2023-04-01T04:58:49;5.70;;;2.10;;
61435;SDS011;47304;47.456;19.160;2023-04-01T05:01:16;3.60;;;1.70;;
61435;SDS011;47304;47.456;19.160;2023-04-01T05:03:43;6.70;;;2.30;;
61435;SDS011;47304;47.456;19.160;2023-04-01T05:06:11;4.30;;;1.80;;
61435;SDS011;47304;47.456;19.160;2023-04-01T05:08:39;6.00;;;2.10;;
61435;SDS011;47304;47.456;19.160;2023-04-01T05:11:07;7.10;;;2.40;;
61435;SDS011;47304;47.456;19.160;2023-04-01T05:13:39;5.90;;;2.00;;
61435;SDS011;47304;47.456;19.160;2023-04-01T05:16:10;6.30;;;2.30;;
61435;SDS011;47304;47.456;19.160;2023-04-01T05:18:40;3.50;;;1.80;;
61435;SDS011;47304;47.456;19.160;2023-04-01T05:21:07;8.20;;;2.30;;
61435;SDS011;47304;47.456;19.160;2023-04-01T05:23:35;6.70;;;2.30;;
61435;SDS011;47304;47.456;19.160;2023-04-01T05:26:05;7.60;;;2.20;;
61435;SDS011;47304;47.456;19.160;2023-04-01T05:28:33;6.00;;;2.20;;
61435;SDS011;47304;47.456;19.160;2023-04-01T05:31:00;5.60;;;2.20;;
61435;SDS011;47304;47.456;19.160;2023-04-01T05:33:28;4.70;;;2.10;;
61435;SDS011;47304;47.456;19.160;2023-04-01T05:35:56;6.50;;;2.20;;
61435;SDS011;47304;47.456;19.160;2023-04-01T05:38:31;5.20;;;2.40;;
61435;SDS011;47304;47.456;19.160;2023-04-01T05:40:58;3.90;;;1.90;;
61435;SDS011;47304;47.456;19.160;2023-04-01T05:43:26;5.80;;;2.60;;
61435;SDS011;47304;47.456;19.160;2023-04-01T05:45:53;7.30;;;2.40;;
61435;SDS011;47304;47.456;19.160;2023-04-01T05:48:19;5.60;;;2.10;;
61435;SDS011;47304;47.456;19.160;2023-04-01T05:50:46;7.20;;;2.30;;
61435;SDS011;47304;47.456;19.160;2023-04-01T05:53:13;6.10;;;2.50;;
61435;SDS011;47304;47.456;19.160;2023-04-01T05:55:39;6.50;;;2.30;;
61435;SDS011;47304;47.456;19.160;2023-04-01T05:58:06;6.90;;;2.50;;
61435;SDS011;47304;47.456;19.160;2023-04-01T06:00:33;7.80;;;2.60;;
61435;SDS011;47304;47.456;19.160;2023-04-01T06:02:59;7.50;;;2.80;;
61435;SDS011;47304;47.456;19.160;2023-04-01T06:05:27;5.40;;;2.30;;
61435;SDS011;47304;47.456;19.160;2023-04-01T06:07:59;6.00;;;2.60;;
61435;SDS011;47304;47.456;19.160;2023-04-01T06:10:36;5.10;;;2.20;;
61435;SDS011;47304;47.456;19.160;2023-04-01T06:16:06;6.20;;;2.80;;
61435;SDS011;47304;47.456;19.160;2023-04-01T06:18:57;6.00;;;2.10;;
61435;SDS011;47304;47.456;19.160;2023-04-01T06:38:34;3.90;;;1.40;;
61435;SDS011;47304;47.456;19.160;2023-04-01T06:55:24;5.00;;;1.60;;
61435;SDS011;47304;47.456;19.160;2023-04-01T06:57:57;4.60;;;1.80;;
61435;SDS011;47304;47.456;19.160;2023-04-01T07:03:16;3.20;;;1.50;;
61435;SDS011;47304;47.456;19.160;2023-04-01T07:06:03;3.00;;;1.40;;
61435;SDS011;47304;47.456;19.160;2023-04-01T07:08:33;2.90;;;1.40;;
61435;SDS011;47304;47.456;19.160;2023-04-01T07:11:04;5.60;;;1.60;;
61435;SDS011;47304;47.456;19.160;2023-04-01T07:19:12;5.40;;;1.50;;
61435;SDS011;47304;47.456;19.160;2023-04-01T07:27:03;2.30;;;1.20;;
61435;SDS011;47304;47.456;19.160;2023-04-01T07:29:35;2.70;;;1.20;;
61435;SDS011;47304;47.456;19.160;2023-04-01T07:35:17;3.10;;;1.40;;
61435;SDS011;47304;47.456;19.160;2023-04-01T07:43:34;6.80;;;1.80;;
61435;SDS011;47304;47.456;19.160;2023-04-01T07:56:47;4.60;;;1.50;;
61435;SDS011;47304;47.456;19.160;2023-04-01T08:01:59;4.40;;;1.50;;
61435;SDS011;47304;47.456;19.160;2023-04-01T08:04:48;2.80;;;1.40;;
61435;SDS011;47304;47.456;19.160;2023-04-01T08:10:32;5.30;;;1.60;;
61435;SDS011;47304;47.456;19.160;2023-04-01T08:13:10;2.20;;;1.30;;
61435;SDS011;47304;47.456;19.160;2023-04-01T08:16:05;5.40;;;1.40;;
61435;SDS011;47304;47.456;19.160;2023-04-01T08:21:43;2.20;;;1.30;;
61435;SDS011;47304;47.456;19.160;2023-04-01T08:24:40;3.10;;;1.30;;
61435;SDS011;47304;47.456;19.160;2023-04-01T08:27:18;3.90;;;1.60;;
61435;SDS011;47304;47.456;19.160;2023-04-01T08:32:49;4.10;;;1.30;;
61435;SDS011;47304;47.456;19.160;2023-04-01T08:35:31;4.50;;;1.50;;
61435;SDS011;47304;47.456;19.160;2023-04-01T08:38:06;4.40;;;1.60;;
61435;SDS011;47304;47.456;19.160;2023-04-01T08:40:45;4.00;;;1.40;;
61435;SDS011;47304;47.456;19.160;2023-04-01T08:44:01;4.80;;;1.30;;
61435;SDS011;47304;47.456;19.160;2023-04-01T09:00:25;3.50;;;1.30;;
61435;SDS011;47304;47.456;19.160;2023-04-01T09:19:47;3.80;;;1.30;;
61435;SDS011;47304;47.456;19.160;2023-04-01T09:23:02;4.60;;;1.70;;
61435;SDS011;47304;47.456;19.160;2023-04-01T09:25:53;4.20;;;1.40;;
61435;SDS011;47304;47.456;19.160;2023-04-01T09:39:34;4.20;;;1.60;;
61435;SDS011;47304;47.456;19.160;2023-04-01T09:47:37;3.60;;;1.50;;
61435;SDS011;47304;47.456;19.160;2023-04-01T09:53:12;3.10;;;1.40;;
61435;SDS011;47304;47.456;19.160;2023-04-01T09:59:04;5.30;;;1.70;;
61435;SDS011;47304;47.456;19.160;2023-04-01T10:05:01;5.90;;;1.70;;
61435;SDS011;47304;47.456;19.160;2023-04-01T10:20:01;3.70;;;1.40;;
61435;SDS011;47304;47.456;19.160;2023-04-01T10:30:58;4.80;;;1.70;;
61435;SDS011;47304;47.456;19.160;2023-04-01T10:39:35;5.00;;;2.00;;
61435;SDS011;47304;47.456;19.160;2023-04-01T10:42:36;7.50;;;2.40;;
61435;SDS011;47304;47.456;19.160;2023-04-01T11:04:56;4.60;;;1.50;;
61435;SDS011;47304;47.456;19.160;2023-04-01T11:30:15;7.40;;;2.10;;
61435;SDS011;47304;47.456;19.160;2023-04-01T11:33:04;4.90;;;2.00;;
61435;SDS011;47304;47.456;19.160;2023-04-01T11:44:03;4.00;;;1.60;;
61435;SDS011;47304;47.456;19.160;2023-04-01T11:54:16;3.70;;;1.60;;
61435;SDS011;47304;47.456;19.160;2023-04-01T11:57:32;5.10;;;1.40;;
61435;SDS011;47304;47.456;19.160;2023-04-01T12:16:55;4.10;;;1.40;;
61435;SDS011;47304;47.456;19.160;2023-04-01T12:22:37;7.00;;;2.00;;
61435;SDS011;47304;47.456;19.160;2023-04-01T12:35:52;5.20;;;1.80;;
61435;SDS011;47304;47.456;19.160;2023-04-01T12:38:33;5.50;;;2.00;;
61435;SDS011;47304;47.456;19.160;2023-04-01T12:41:32;4.10;;;1.70;;
61435;SDS011;47304;47.456;19.160;2023-04-01T12:47:04;4.90;;;1.70;;
61435;SDS011;47304;47.456;19.160;2023-04-01T13:19:41;4.20;;;1.30;;
61435;SDS011;47304;47.456;19.160;2023-04-01T13:22:48;6.20;;;1.80;;
61435;SDS011;47304;47.456;19.160;2023-04-01T13:25:27;3.70;;;1.40;;
61435;SDS011;47304;47.456;19.160;2023-04-01T13:28:43;7.30;;;2.30;;
61435;SDS011;47304;47.456;19.160;2023-04-01T14:10:36;4.50;;;1.70;;
61435;SDS011;47304;47.456;19.160;2023-04-01T14:15:52;8.70;;;2.20;;
61435;SDS011;47304;47.456;19.160;2023-04-01T14:23:55;7.40;;;2.70;;
61435;SDS011;47304;47.456;19.160;2023-04-01T14:35:58;4.90;;;1.50;;
61435;SDS011;47304;47.456;19.160;2023-04-01T14:38:08;1.90;;;1.10;;
61435;SDS011;47304;47.456;19.160;2023-04-01T14:43:33;4.30;;;1.70;;
61435;SDS011;47304;47.456;19.160;2023-04-01T14:46:23;6.20;;;1.90;;
61435;SDS011;47304;47.456;19.160;2023-04-01T14:52:27;5.20;;;1.70;;
61435;SDS011;47304;47.456;19.160;2023-04-01T14:54:57;3.50;;;1.50;;
61435;SDS011;47304;47.456;19.160;2023-04-01T14:57:25;5.50;;;2.00;;
61435;SDS011;47304;47.456;19.160;2023-04-01T15:00:12;6.70;;;1.90;;
61435;SDS011;47304;47.456;19.160;2023-04-01T15:05:24;7.90;;;1.90;;
61435;SDS011;47304;47.456;19.160;2023-04-01T15:07:59;2.90;;;1.50;;
61435;SDS011;47304;47.456;19.160;2023-04-01T15:22:01;3.40;;;1.50;;
61435;SDS011;47304;47.456;19.160;2023-04-01T15:41:15;5.10;;;1.80;;
61435;SDS011;47304;47.456;19.160;2023-04-01T15:43:47;4.90;;;2.00;;
61435;SDS011;47304;47.456;19.160;2023-04-01T15:51:33;2.80;;;1.50;;
61435;SDS011;47304;47.456;19.160;2023-04-01T15:57:20;4.00;;;1.50;;
61435;SDS011;47304;47.456;19.160;2023-04-01T16:20:01;3.50;;;1.20;;
61435;SDS011;47304;47.456;19.160;2023-04-01T16:23:01;3.00;;;1.40;;
61435;SDS011;47304;47.456;19.160;2023-04-01T16:25:40;5.70;;;1.80;;
61435;SDS011;47304;47.456;19.160;2023-04-01T16:31:06;7.40;;;1.90;;
61435;SDS011;47304;47.456;19.160;2023-04-01T16:53:25;8.20;;;3.50;;
61435;SDS011;47304;47.456;19.160;2023-04-01T16:56:07;9.50;;;4.80;;
61435;SDS011;47304;47.456;19.160;2023-04-01T17:01:47;6.30;;;3.50;;
61435;SDS011;47304;47.456;19.160;2023-04-01T17:06:48;4.40;;;1.80;;
61435;SDS011;47304;47.456;19.160;2023-04-01T17:09:28;11.40;;;5.50;;
61435;SDS011;47304;47.456;19.160;2023-04-01T17:12:17;8.10;;;4.30;;
61435;SDS011;47304;47.456;19.160;2023-04-01T17:17:53;5.30;;;1.90;;
61435;SDS011;47304;47.456;19.160;2023-04-01T17:20:40;5.90;;;2.00;;
61435;SDS011;47304;47.456;19.160;2023-04-01T17:25:56;4.40;;;2.10;;
61435;SDS011;47304;47.456;19.160;2023-04-01T17:28:46;4.70;;;1.50;;
61435;SDS011;47304;47.456;19.160;2023-04-01T17:31:21;3.20;;;1.50;;
61435;SDS011;47304;47.456;19.160;2023-04-01T17:42:16;3.80;;;1.50;;
61435;SDS011;47304;47.456;19.160;2023-04-01T17:45:03;4.00;;;1.70;;
61435;SDS011;47304;47.456;19.160;2023-04-01T17:58:59;5.10;;;1.80;;
61435;SDS011;47304;47.456;19.160;2023-04-01T18:01:44;5.70;;;2.10;;
61435;SDS011;47304;47.456;19.160;2023-04-01T18:07:10;4.80;;;2.30;;
61435;SDS011;47304;47.456;19.160;2023-04-01T18:09:51;8.40;;;4.00;;
61435;SDS011;47304;47.456;19.160;2023-04-01T18:12:31;6.40;;;2.40;;
61435;SDS011;47304;47.456;19.160;2023-04-01T18:18:07;7.20;;;2.40;;
61435;SDS011;47304;47.456;19.160;2023-04-01T18:23:53;5.30;;;2.20;;
61435;SDS011;47304;47.456;19.160;2023-04-01T18:26:29;6.90;;;2.40;;
61435;SDS011;47304;47.456;19.160;2023-04-01T18:28:59;5.70;;;2.00;;
61435;SDS011;47304;47.456;19.160;2023-04-01T18:31:43;6.10;;;1.90;;
61435;SDS011;47304;47.456;19.160;2023-04-01T18:34:36;5.10;;;1.80;;
61435;SDS011;47304;47.456;19.160;2023-04-01T18:40:10;4.90;;;2.00;;
61435;SDS011;47304;47.456;19.160;2023-04-01T18:51:59;8.20;;;2.20;;
61435;SDS011;47304;47.456;19.160;2023-04-01T18:57:47;6.00;;;1.90;;
61435;SDS011;47304;47.456;19.160;2023-04-01T19:00:19;6.60;;;2.10;;
61435;SDS011;47304;47.456;19.160;2023-04-01T19:02:58;5.60;;;2.00;;
61435;SDS011;47304;47.456;19.160;2023-04-01T19:05:42;6.40;;;2.10;;
61435;SDS011;47304;47.456;19.160;2023-04-01T19:08:45;5.80;;;2.20;;
61435;SDS011;47304;47.456;19.160;2023-04-01T19:19:16;7.00;;;2.50;;
61435;SDS011;47304;47.456;19.160;2023-04-01T19:27:28;6.30;;;2.50;;
61435;SDS011;47304;47.456;19.160;2023-04-01T19:35:55;6.70;;;2.60;;
61435;SDS011;47304;47.456;19.160;2023-04-01T19:38:43;6.00;;;2.20;;
61435;SDS011;47304;47.456;19.160;2023-04-01T19:41:31;7.00;;;2.40;;
61435;SDS011;47304;47.456;19.160;2023-04-01T19:54:34;7.20;;;2.60;;
61435;SDS011;47304;47.456;19.160;2023-04-01T20:05:21;7.70;;;2.80;;
61435;SDS011;47304;47.456;19.160;2023-04-01T20:07:51;6.80;;;2.30;;
61435;SDS011;47304;47.456;19.160;2023-04-01T20:16:08;6.90;;;2.90;;
61435;SDS011;47304;47.456;19.160;2023-04-01T20:18:57;12.10;;;5.30;;
61435;SDS011;47304;47.456;19.160;2023-04-01T20:21:36;9.50;;;3.90;;
61435;SDS011;47304;47.456;19.160;2023-04-01T20:24:23;14.30;;;7.30;;
61435;SDS011;47304;47.456;19.160;2023-04-01T20:27:21;11.50;;;4.50;;
61435;SDS011;47304;47.456;19.160;2023-04-01T20:35:22;5.50;;;2.40;;
61435;SDS011;47304;47.456;19.160;2023-04-01T20:41:19;7.30;;;2.70;;
61435;SDS011;47304;47.456;19.160;2023-04-01T20:46:56;7.00;;;2.60;;
61435;SDS011;47304;47.456;19.160;2023-04-01T20:52:49;5.20;;;2.10;;
61435;SDS011;47304;47.456;19.160;2023-04-01T20:55:30;6.50;;;2.60;;
61435;SDS011;47304;47.456;19.160;2023-04-01T21:01:47;6.70;;;2.50;;
61435;SDS011;47304;47.456;19.160;2023-04-01T21:07:42;7.30;;;3.20;;
61435;SDS011;47304;47.456;19.160;2023-04-01T21:10:34;9.70;;;3.50;;
61435;SDS011;47304;47.456;19.160;2023-04-01T21:21:42;7.80;;;3.20;;
61435;SDS011;47304;47.456;19.160;2023-04-01T21:27:24;8.10;;;3.60;;
61435;SDS011;47304;47.456;19.160;2023-04-01T21:39:27;7.80;;;3.30;;
61435;SDS011;47304;47.456;19.160;2023-04-01T22:07:06;7.20;;;2.80;;
61435;SDS011;47304;47.456;19.160;2023-04-01T22:09:46;9.50;;;3.00;;
61435;SDS011;47304;47.456;19.160;2023-04-01T22:15:09;6.10;;;2.70;;
61435;SDS011;47304;47.456;19.160;2023-04-01T22:18:02;6.40;;;2.30;;
61435;SDS011;47304;47.456;19.160;2023-04-01T22:20:58;6.70;;;2.70;;
61435;SDS011;47304;47.456;19.160;2023-04-01T22:31:44;5.50;;;1.80;;
61435;SDS011;47304;47.456;19.160;2023-04-01T22:34:19;4.50;;;1.40;;
61435;SDS011;47304;47.456;19.160;2023-04-01T22:36:57;5.10;;;1.40;;
61435;SDS011;47304;47.456;19.160;2023-04-01T22:39:36;4.40;;;1.70;;
61435;SDS011;47304;47.456;19.160;2023-04-01T22:50:35;3.20;;;1.50;;
61435;SDS011;47304;47.456;19.160;2023-04-01T22:53:13;8.00;;;1.70;;
61435;SDS011;47304;47.456;19.160;2023-04-01T22:55:51;3.40;;;1.70;;
61435;SDS011;47304;47.456;19.160;2023-04-01T22:58:41;5.30;;;1.70;;
61435;SDS011;47304;47.456;19.160;2023-04-01T23:01:19;6.10;;;2.20;;
61435;SDS011;47304;47.456;19.160;2023-04-01T23:03:50;4.60;;;1.60;;
61435;SDS011;47304;47.456;19.160;2023-04-01T23:06:20;6.20;;;1.70;;
61435;SDS011;47304;47.456;19.160;2023-04-01T23:27:50;3.30;;;1.30;;
61435;SDS011;47304;47.456;19.160;2023-04-01T23:35:53;3.50;;;1.50;;
61435;SDS011;47304;47.456;19.160;2023-04-01T23:38:23;3.60;;;1.40;;
61435;SDS011;47304;47.456;19.160;2023-04-01T23:40:52;4.10;;;1.50;;
61435;SDS011;47304;47.456;19.160;2023-04-01T23:45:54;3.90;;;1.50;;
61435;SDS011;47304;47.456;19.160;2023-04-01T23:48:26;2.70;;;1.30;;
61435;SDS011;47304;47.456;19.160;2023-04-01T23:50:56;5.00;;;1.70;;
61435;SDS011;47304;47.456;19.160;2023-04-01T23:53:25;5.80;;;1.60;;
61435;SDS011;47304;47.456;19.160;2023-04-01T23:55:55;3.00;;;1.40;;
61435;SDS011;47304;47.456;19.160;2023-04-01T23:58:26;3.20;;;1.40;;
